Pagrindinis puslapis
METAR-TAF:

METAR-TAF

Oro uostai :

Oksfordas, Anglija

platuma: 51-50-13N, ilguma: 1-19-12W, Aukštis: 82 m

Dabartinis oras

Ataskaita buvo paskelbta 2 valandos ir 2 minutes, ne 19:20 UTC
Vėjas 5 kt iš Vakarų
Temperatūra 1°C
Drėgmė 100%
Slėgis 1045 hPa
Matomumas 10 km arba daugiau
nėra debesų žemiau 1500 m ir nėra kamuolinių lietaus debesų

METAR: EGTK 201920Z 26005KT CAVOK 01/01 Q1045

Laikas: 21:22 (21:22 UTC)

Prognozė

Ataskaita buvo paskelbta 4 valandos ir 20 minutes, ne 17:02 UTC
Prognozė galioja nuo 20 metu 18 UTC su 20 metu 22 UTC
Vėjas 3 kt iš Vakarų/Pietvakarių
Matomumas 10 km arba daugiau
nėra debesų žemiau 1500 m ir nėra kamuolinių lietaus debesų
Laikinai
nuo 20 metu 19 UTC su 20 metu 22 UTC
Matomumas: 4000 m
rūkana, Sekli rūkas
Tikimybė 30%
nuo 20 metu 21 UTC su 20 metu 22 UTC
Matomumas: 0300 m
Su prošvaistėmis ne aukštis mažesnis nei 100 ft
įšaldymas rūko

TAF: EGTK 201702Z 2018/2022 25003KT CAVOK TEMPO 2019/2022 4000 BR MIFG PROB30 2021/2022 0300 FZFG BKN000

Orai ataskaitas ir orų prognozės (METAR, TAF).

turimą stotys yra geltonos ir raudonos taškus žemėlapyje.

Perkelti pele per norėdami pamatyti stoties vardą.

Tada spustelėkite, norėdami matyti oro stebėjimo ir prognozės.

Norėdami pakeisti žemėlapį: spustelėkite ant žalios mygtukų su juodo kryžiaus žemyn,; žalią mygtuką su brūkšneliu, jei norite nutolinti; arba žalių rodyklių gretimoms žemėlapius.


METAR-TAF: